Latest Weather Observations for Cummins Airport

IDS60801

Issued at 9:35 pm CST Wednesday 23 April 2014 (issued every 30 minutes, with the page automatically refreshed every 10 minutes)

About weather observations | Map of weather stations | Latest weather observations for SA | Other Formats
Station Details ID: 018217 Name: CUMMINS AERO Lat: -34.25 Lon: 135.71 Height: 60.11 m
Data from the previous 72 hours. | See also: Recent months at Cummins Airport
Date/Time
CST
Temp
°C
App
Temp
°C
Dew
Point
Rel
Hum
%
Delta-T
°C
Wind Press
QNH
hPa
Press
MSL
hPa
Rain
since 9 am
mm
Dir
 
Spd
km/h
Gust
km/h
Spd
kts
Gust
kts
23/09:30pm 15.0 15.0 14.2 95 0.5 WNW 7 11 4 6 1016.9 - 0.8
23/09:00pm 15.0 14.2 14.0 94 0.6 W 11 15 6 8 1016.8 1016.7 0.8
23/08:30pm 14.2 13.0 11.7 85 1.3 W 9 13 5 7 1016.8 - 0.0
23/08:00pm 14.1 13.1 11.1 82 1.6 NW 7 9 4 5 1016.5 - 0.0
23/07:30pm 14.3 13.2 10.7 79 1.9 NNW 7 9 4 5 1016.4 - 0.0
23/07:00pm 14.3 12.8 10.5 78 2.0 WNW 9 11 5 6 1016.1 - 0.0
23/06:30pm 15.4 13.5 10.4 72 2.6 W 11 15 6 8 1015.6 - 0.0
23/06:00pm 16.8 13.5 10.9 68 3.2 W 19 28 10 15 1015.5 1015.4 0.0
23/05:30pm 17.3 13.2 10.2 63 3.8 W 22 30 12 16 1015.3 - 0.0
23/05:00pm 19.1 14.8 9.3 53 5.2 WNW 22 30 12 16 1015.1 - 0.0
23/04:30pm 19.7 14.5 8.7 49 5.8 W 26 33 14 18 1015.2 - 0.0
23/04:00pm 20.8 15.8 8.1 44 6.6 WNW 24 32 13 17 1014.8 - 0.0
23/03:30pm 20.6 16.1 6.9 41 7.0 WNW 20 30 11 16 1014.6 - 0.0
23/03:00pm 21.9 17.5 7.3 39 7.5 WNW 20 26 11 14 1014.7 1014.6 0.0
23/02:30pm 21.2 17.3 8.5 44 6.7 WNW 19 26 10 14 1014.8 - 0.0
23/02:00pm 21.5 17.5 8.4 43 6.9 WNW 19 24 10 13 1014.9 - 0.0
23/01:30pm 21.1 18.0 9.0 46 6.4 W 15 24 8 13 1015.3 - 0.0
23/01:00pm 20.5 18.5 10.0 51 5.7 WNW 11 19 6 10 1015.8 - 0.0
23/12:30pm 20.3 18.3 10.1 52 5.5 WNW 11 15 6 8 1016.5 - 0.0
23/12:00pm 19.1 16.7 10.1 56 4.8 W 13 20 7 11 1017.1 1017.0 0.0
23/11:30am 18.9 16.0 9.7 55 4.9 WSW 15 22 8 12 1017.6 - 0.0
23/11:00am 17.9 14.6 9.5 58 4.4 W 17 26 9 14 1018.0 - 0.0
23/10:30am 17.8 15.4 10.2 61 4.1 W 13 20 7 11 1018.4 - 0.0
23/10:00am 16.8 14.8 10.2 65 3.5 WNW 11 17 6 9 1018.8 - 0.0
23/09:30am 14.9 13.6 9.9 72 2.6 NNW 7 11 4 6 1018.9 - 0.0
23/09:00am 11.8 10.5 9.9 88 1.0 NNE 7 9 4 5 1019.1 1019.0 0.0
23/08:30am 8.5 7.3 7.9 96 0.3 NW 4 9 2 5 1019.1 - 0.0
23/08:00am 6.3 5.4 6.0 98 0.1 CALM 0 0 0 0 1019.0 - 0.0
23/07:30am 4.6 3.3 4.3 98 0.1 CALM 0 0 0 0 1018.7 - 0.0
23/07:00am 3.8 2.4 3.4 97 0.2 CALM 0 0 0 0 1018.0 - 0.0
23/06:30am 3.7 1.5 3.3 97 0.2 N 4 7 2 4 1017.8 - 0.0
23/06:00am 3.3 0.5 2.9 97 0.2 N 7 9 4 5 1017.8 1017.7 0.0
23/05:30am 3.3 0.5 2.9 97 0.2 NNE 7 7 4 4 1017.9 - 0.0
23/05:00am 3.8 2.3 3.2 96 0.2 CALM 0 0 0 0 1017.9 - 0.0
23/04:30am 3.3 1.7 2.6 95 0.3 N 0 0 0 0 1017.6 - 0.0
23/04:00am 4.0 2.6 3.3 95 0.3 CALM 0 0 0 0 1017.7 - 0.0
23/03:30am 4.0 2.5 2.8 92 0.5 CALM 0 0 0 0 1017.8 - 0.0
23/03:00am 4.7 2.9 3.5 92 0.5 ENE 2 6 1 3 1018.2 1018.1 0.0
23/02:30am 4.3 1.5 3.0 91 0.5 NNE 7 7 4 4 1018.4 - 0.0
23/02:00am 4.5 1.9 3.3 92 0.5 NE 6 6 3 3 1018.9 - 0.0
23/01:30am 5.5 3.1 4.3 92 0.5 N 6 7 3 4 1019.1 - 0.0
23/01:00am 4.6 1.8 2.9 89 0.7 NNE 7 9 4 5 1019.2 - 0.0
23/12:30am 5.3 2.8 3.6 89 0.7 SW 6 7 3 4 1019.5 - 0.0
23/12:00am 6.4 4.1 4.9 90 0.7 N 6 7 3 4 1019.5 1019.4 0.0
 
Date/Time
CST
Temp
°C
App
Temp
°C
Dew
Point
Rel
Hum
%
Delta-T
°C
Wind Press
QNH
hPa
Press
MSL
hPa
Rain
since 9 am
mm
Dir
 
Spd
km/h
Gust
km/h
Spd
kts
Gust
kts
22/11:30pm 6.3 3.8 4.5 88 0.8 N 7 9 4 5 1019.6 - 0.0
22/11:00pm 6.9 5.7 4.6 85 1.0 CALM 0 0 0 0 1019.8 - 0.0
22/10:30pm 7.4 6.2 4.7 83 1.2 CALM 0 0 0 0 1019.9 - 0.0
22/10:00pm 7.7 6.5 4.7 81 1.3 CALM 0 0 0 0 1020.1 - 0.0
22/09:30pm 7.9 6.7 4.8 81 1.4 CALM 0 0 0 0 1020.1 - 0.0
22/09:00pm 9.4 8.4 5.8 78 1.6 CALM 0 7 0 4 1020.0 1019.9 0.0
22/08:30pm 11.1 10.1 7.2 77 1.9 SSE 2 7 1 4 1019.7 - 0.0
22/08:00pm 11.5 9.1 6.8 73 2.2 SE 9 11 5 6 1019.5 - 0.0
22/07:30pm 12.5 9.8 7.4 71 2.5 S 11 13 6 7 1019.3 - 0.0
22/07:00pm 13.6 11.0 7.6 67 3.0 S 11 13 6 7 1019.4 - 0.0
22/06:30pm 15.2 11.9 8.2 63 3.5 S 15 19 8 10 1018.9 - 0.0
22/06:00pm 16.4 12.4 8.1 58 4.2 SSW 19 24 10 13 1018.8 1018.7 0.0
22/05:30pm 17.8 13.3 8.4 54 4.8 SSW 22 28 12 15 1018.5 - 0.0
22/05:00pm 18.4 13.4 8.1 51 5.3 SSW 24 28 13 15 1018.2 - 0.0
22/04:30pm 19.2 14.2 8.2 49 5.7 SSW 24 30 13 16 1018.0 - 0.0
22/04:00pm 20.8 16.5 7.8 43 6.7 SW 20 28 11 15 1018.0 - 0.0
22/03:30pm 20.1 15.0 7.8 45 6.4 SW 24 37 13 20 1017.9 - 0.0
22/03:00pm 21.1 16.1 8.0 43 6.8 SW 24 32 13 17 1017.8 1017.7 0.0
22/02:30pm 21.0 16.0 8.0 43 6.8 S 24 35 13 19 1017.7 - 0.0
22/02:00pm 20.7 15.5 7.3 42 6.9 SW 24 37 13 20 1017.6 - 0.0
22/01:30pm 21.4 16.6 7.3 40 7.3 SW 22 35 12 19 1017.7 - 0.0
22/01:00pm 21.2 16.8 7.4 41 7.1 SW 20 32 11 17 1018.1 - 0.0
22/12:30pm 20.9 16.0 6.8 40 7.2 SSW 22 35 12 19 1018.3 - 0.0
22/12:00pm 20.4 16.1 7.7 44 6.5 S 20 32 11 17 1018.6 1018.5 0.0
22/11:30am 20.8 16.8 8.4 45 6.5 S 19 30 10 16 1018.9 - 0.0
22/11:00am 19.2 15.1 8.5 50 5.6 SSW 20 30 11 16 1019.0 - 0.0
22/10:30am 19.3 14.5 8.9 51 5.5 SSW 24 32 13 17 1019.1 - 0.0
22/10:00am 18.4 13.9 10.0 58 4.5 SSW 24 32 13 17 1019.2 - 0.0
22/09:30am 17.4 12.5 10.1 62 3.9 S 26 32 14 17 1019.0 - 0.0
22/09:00am 16.5 13.2 11.0 70 2.9 S 19 24 10 13 1019.2 1019.1 0.0
22/08:30am 13.7 11.8 11.9 89 1.0 SSW 13 17 7 9 1018.9 - 0.0
22/08:00am 11.4 10.0 10.9 97 0.3 SSW 9 9 5 5 1018.4 - 0.0
22/07:30am 8.8 7.1 8.4 97 0.2 S 7 9 4 5 1018.0 - 0.0
22/07:00am 9.0 7.5 8.5 97 0.2 SSW 6 6 3 3 1017.6 - 0.0
22/06:30am 9.7 7.8 9.2 97 0.2 SSW 9 11 5 6 1017.1 - 0.0
22/06:00am 9.8 8.9 9.2 96 0.3 S 4 9 2 5 1016.8 1016.7 0.0
22/05:30am 8.8 8.3 8.0 95 0.4 CALM 0 0 0 0 1016.6 - 0.0
22/05:00am 9.3 9.0 8.5 95 0.4 CALM 0 0 0 0 1016.2 - 0.0
22/04:30am 10.4 10.3 9.6 95 0.4 CALM 0 0 0 0 1015.9 - 0.0
22/04:00am 10.1 9.9 9.0 93 0.5 CALM 0 0 0 0 1015.7 - 0.0
22/03:30am 11.7 10.2 10.6 93 0.6 SSW 9 9 5 5 1015.5 - 0.0
22/03:00am 11.9 10.4 10.5 91 0.7 SSW 9 11 5 6 1015.4 1015.3 0.0
22/02:30am 12.9 12.0 11.3 90 0.8 S 7 9 4 5 1015.2 - 0.0
22/02:00am 14.0 11.8 12.2 89 1.0 SSW 15 19 8 10 1014.8 - 0.0
22/01:30am 14.1 13.0 12.0 87 1.1 SSW 9 11 5 6 1014.7 - 0.0
22/01:00am 15.4 13.8 12.9 85 1.4 SSW 13 17 7 9 1014.8 - 0.0
22/12:30am 15.6 13.7 13.1 85 1.4 SSW 15 20 8 11 1014.0 - 0.0
22/12:00am 16.1 14.3 13.2 83 1.6 SSW 15 20 8 11 1014.5 1014.4 0.0
 
Date/Time
CST
Temp
°C
App
Temp
°C
Dew
Point
Rel
Hum
%
Delta-T
°C
Wind Press
QNH
hPa
Press
MSL
hPa
Rain
since 9 am
mm
Dir
 
Spd
km/h
Gust
km/h
Spd
kts
Gust
kts
21/11:30pm 16.3 14.8 13.2 82 1.7 SSW 13 15 7 8 1013.7 - 0.0
21/11:00pm 17.0 13.7 13.9 82 1.8 S 24 32 13 17 1013.1 - 0.0
21/10:30pm 17.8 16.6 15.1 84 1.6 SSW 15 19 8 10 1013.9 - 0.0
21/10:00pm 17.9 16.4 15.2 84 1.6 SSW 17 22 9 12 1013.8 - 0.0
21/09:30pm 17.9 15.3 14.8 82 1.8 S 22 32 12 17 1012.3 - 0.0
21/09:00pm 18.2 16.2 14.9 81 1.9 SW 19 22 10 12 1012.5 1012.3 0.0
21/08:30pm 18.5 16.3 15.0 80 2.0 S 20 30 11 16 1011.4 - 0.0
21/08:00pm 18.7 16.2 15.2 80 2.1 S 22 32 12 17 1011.4 - 0.0
21/07:30pm 18.7 16.7 12.7 68 3.4 WSW 15 19 8 10 1011.8 - 0.0
21/07:00pm 19.2 16.0 11.3 60 4.3 WSW 19 22 10 12 1010.9 - 0.0
21/06:30pm 20.0 18.3 9.9 52 5.4 W 9 17 5 9 1010.5 - 0.0
21/06:00pm 21.2 17.4 9.1 46 6.5 W 19 24 10 13 1010.3 1010.2 0.0
21/05:30pm 22.9 18.2 6.2 34 8.5 W 20 30 11 16 1010.0 - 0.0
21/05:00pm 24.2 18.2 5.1 29 9.6 WNW 26 37 14 20 1009.8 - 0.0
21/04:30pm 25.8 20.2 5.4 27 10.4 WNW 24 35 13 19 1009.6 - 0.0
21/04:00pm 26.2 20.2 5.2 26 10.7 WNW 26 39 14 21 1009.6 - 0.0
21/03:30pm 27.3 19.4 4.4 23 11.6 NW 35 50 19 27 1009.6 - 0.0
21/03:00pm 28.8 20.0 3.6 20 12.8 NW 39 59 21 32 1009.6 1009.5 0.0
21/02:54pm 28.5 19.7 3.4 20 12.6 NW 39 59 21 32 1009.6 - 0.0
21/02:30pm 28.7 19.6 4.2 21 12.5 NW 41 54 22 29 1009.5 - 0.0
21/02:09pm 27.9 19.0 4.9 23 11.8 NW 41 61 22 33 1009.6 - 0.0
21/02:00pm 28.3 19.0 5.2 23 12.0 NW 43 57 23 31 1009.7 - 0.0
21/01:30pm 28.8 19.4 4.3 21 12.5 WNW 43 63 23 34 1009.8 - 0.0
21/01:10pm 29.6 20.6 4.3 20 13.0 WNW 41 59 22 32 1009.8 - 0.0
21/01:00pm 29.6 20.0 4.3 20 13.0 NW 44 57 24 31 1009.8 - 0.0
21/12:33pm 30.4 21.0 4.2 19 13.5 NW 43 61 23 33 1010.1 - 0.0
21/12:30pm 30.3 21.7 4.9 20 13.2 NW 39 54 21 29 1010.1 - 0.0
21/12:00pm 31.2 22.1 4.1 18 14.0 NW 41 56 22 30 1010.5 1010.4 0.0
21/11:30am 30.5 22.7 5.0 20 13.3 NNW 35 54 19 29 1010.9 - 0.0
21/11:00am 29.1 20.2 5.2 22 12.4 NNW 41 59 22 32 1011.1 - 0.0
21/10:57am 29.1 20.1 4.6 21 12.6 NNW 41 59 22 32 1011.1 - 0.0
21/10:30am 28.2 20.3 6.3 25 11.6 NNW 37 52 20 28 1011.2 - 0.0
21/10:00am 25.5 18.0 6.2 29 10.0 NNW 35 46 19 25 1011.5 - 0.0
21/09:30am 25.4 17.1 6.1 29 10.0 NNW 39 52 21 28 1011.6 - 0.0
21/09:10am 25.6 18.2 6.7 30 9.9 N 35 54 19 29 1011.6 - 0.0
21/09:00am 24.7 16.5 6.4 31 9.5 N 39 50 21 27 1011.8 1011.6 0.0
21/08:30am 22.3 15.5 7.7 39 7.6 N 33 44 18 24 1011.4 - 0.0
21/08:00am 20.8 14.4 8.4 45 6.5 N 32 43 17 23 1011.5 - 0.0
21/07:30am 20.0 13.6 8.4 47 6.1 N 32 43 17 23 1011.4 - 0.0
21/07:00am 19.7 13.6 8.4 48 5.9 N 30 39 16 21 1011.2 - 0.0
21/06:30am 19.9 13.8 8.3 47 6.0 N 30 39 16 21 1011.1 - 0.0
21/06:00am 19.9 14.2 8.3 47 6.0 N 28 35 15 19 1011.2 1011.1 0.0
21/05:30am 19.9 14.3 8.6 48 5.9 N 28 35 15 19 1011.3 - 0.0
21/05:00am 20.0 13.6 8.4 47 6.1 N 32 41 17 22 1011.0 - 0.0
21/04:30am 20.0 13.4 8.7 48 5.9 N 33 46 18 25 1010.6 - 0.0
21/04:00am 19.5 13.0 8.8 50 5.6 N 33 43 18 23 1010.4 - 0.0
21/03:30am 19.0 13.4 8.9 52 5.3 NNE 28 41 15 22 1010.7 - 0.0
21/03:00am 18.2 13.4 8.7 54 4.9 NNE 24 32 13 17 1011.5 1011.4 0.0
21/02:30am 18.5 13.7 8.7 53 5.1 NNE 24 30 13 16 1011.8 - 0.0
21/02:00am 17.8 13.4 8.9 56 4.6 NNE 22 28 12 15 1012.1 - 0.0
21/01:30am 18.2 13.5 9.3 56 4.7 NNE 24 33 13 18 1012.4 - 0.0
21/01:00am 17.3 14.0 9.7 61 4.0 NE 17 24 9 13 1012.5 - 0.0
21/12:30am 18.1 14.0 10.0 59 4.3 NE 22 30 12 16 1012.8 - 0.0
21/12:00am 18.4 14.1 10.7 61 4.2 NE 24 33 13 18 1013.0 1012.8 0.0
 
Date/Time
CST
Temp
°C
App
Temp
°C
Dew
Point
Rel
Hum
%
Delta-T
°C
Wind Press
QNH
hPa
Press
MSL
hPa
Rain
since 9 am
mm
Dir
 
Spd
km/h
Gust
km/h
Spd
kts
Gust
kts
20/11:30pm 18.5 14.4 11.3 63 3.9 NE 24 33 13 18 1013.4 - 0.0
20/11:00pm 18.7 14.6 11.5 63 4.0 NE 24 35 13 19 1013.7 - 0.0
20/10:30pm 18.6 13.9 11.9 65 3.7 ENE 28 39 15 21 1014.1 - 0.0
20/10:00pm 18.2 13.9 12.0 67 3.4 ENE 26 37 14 20 1014.4 - 0.0

Other Formats:

Comma delimited format used in spreadsheet applications
http://www.bom.gov.au/fwo/IDS60801/IDS60801.95663.axf

JavaScript Object Notation format (JSON) in row-major order
http://www.bom.gov.au/fwo/IDS60801/IDS60801.95663.json